Terminal Aerodrome Forecast
Issued by NWS Wilmington, OH

Home | Current Version | Previous Version | Text Only | Print | Product List | Glossary On
Versions: 1 2 3 4 5 6 7 8 9 10 11 12 13 14 15 16 17 18
000
FTUS41 KILN 280500
TAFCMH
TAF
KCMH 280520Z 2806/0106 00000KT P6SM BKN150
     FM281500 10005KT P6SM BKN100
     FM281800 10006KT P6SM SCT025 BKN060
     FM010400 10003KT 3SM -SN BKN025 OVC060=

USA.gov is the U.S. government's official web portal to all federal, state and local government web resources and services.